LOWS/SZG METAR and TAF weather

Enter ICAO airport designator
Station Type Date Time Source
LOWS METAR 2022/06/26 08:20 UTC NOAA

LOWS 260820Z AUTO VRB03KT 9999 FEW060 23/14 Q1017 NOSIG


Station Type Date Time Source
LOWS Decoded METAR 2022/06/26 08:20 UTC NOAA

Salzburg-Flughafen, Austria (LOWS) 47-48N 013-00E 450M
Jun 26, 2022 - 04:20 AM EDT / 2022.06.26 0820 UTC
Wind: Variable at 3 MPH (3 KT):0
Visibility: greater than 7 mile(s):0
Sky conditions: mostly clear
Temperature: 73 F (23 C)
Dew Point: 57 F (14 C)
Relative Humidity: 56%
Pressure (altimeter): 30.03 in. Hg (1017 hPa)
ob: LOWS 260820Z AUTO VRB03KT 9999 FEW060 23/14 Q1017 NOSIG
cycle: 8

Station Type Date Time Source
LOWS TAF 2022/06/26 06:21 UTC NOAA

TAF LOWS 260515Z 2606/2706 15005KT 9999 FEW060 TX29/2616Z TN18/2606Z
BECMG 2608/2610 01007KT
BECMG 2619/2621 15005KT

Example: see airport list